函館空港の過去48時間の天気

函館空港 (Hakodate)

現在時刻: 7/2 21:11 JST (7/2 12:11 UTC) 以下の時間は現地時間です。

過去48時間のMETAR気象情報
時間 風向 風速(m/s) 視程 気温(℃) 湿度(%) 気圧(hPa) 天気現象
2 20:00 不定 1 8000m 17 94 1007 しゅう雨
2 19:30 不定 2 5000m 17 94 1006 しゅう雨 もや
2 19:14 北東 4 3200m 17 94 1006 しゅう雨 もや
2 19:00 北東 6 4900m 17 94 1005 弱いしゅう雨 もや
2 18:44 東北東 5 5000m 17 100 1005 弱いしゅう雨 もや
2 18:10 東北東 3 3200m 18 94 1004 弱いしゅう雨 散在した霧 もや
2 18:00 不定 1 2400m 18 100 1004 しゅう雨 散在した霧 もや
2 17:48 西北西 3 2400m 19 94 1004 しゅう雨 散在した霧 もや
2 17:40 不定 1 2300m 19 100 1004 弱いしゅう雨 散在した霧 もや
2 17:10 南東 1 3000m 19 94 1004 弱いしゅう雨 散在した霧 もや
2 17:00 南東 1 3000m 18 100 1004 しゅう雨 散在した霧 もや
2 16:48 不定 1 3200m 18 100 1004 弱いしゅう雨 散在した霧 もや
2 16:38 南南東 2 2400m 18 100 1004 しゅう雨 散在した霧 もや
2 16:12 不定 1 2300m 20 100 1004 しゅう雨 散在した霧 もや
2 16:00 不定 1 3000m 20 94 1004 弱いしゅう雨 散在した霧 もや
2 15:32 不定 1 3100m 20 100 1004 弱いしゅう雨 散在した霧 もや
2 15:13 不定 1 4900m 19 100 1004 弱いしゅう雨 散在した霧 もや
2 15:00 南南東 2 7000m 19 100 1004 弱いしゅう雨
2 14:00 不定 1 6000m 20 94 1004 弱いしゅう雨
2 13:29 南東 3 6000m 19 100 1004 弱いしゅう雨
2 13:00 東南東 2 5000m 19 100 1004 弱いしゅう雨 もや
2 12:39 南南東 2 4000m 19 94 1004 弱いしゅう雨 散在した霧 もや
2 12:18 南西 2 2300m 18 100 1005 弱いしゅう雨 散在した霧 もや
2 12:10 南西 2 2400m 19 94 1004 弱いしゅう雨 散在した霧 もや
2 12:00 南西 2 2300m 19 100 1004 弱いしゅう雨 散在した霧 もや
2 11:41 南南西 2 3100m 19 100 1004 弱いしゅう雨 散在した霧 もや
2 11:38 南西 2 4900m 19 100 1004 弱いしゅう雨 もや
2 11:25 不定 1 7000m 20 100 1004 弱いしゅう雨
2 11:00 東北東 2 6000m 19 100 1004 弱いしゅう雨
2 10:34 東北東 2 5000m 19 94 1004 しゅう雨 もや
2 10:25 東北東 3 5000m 19 94 1004 しゅう雨 散在した霧 もや
2 10:14 3 3200m 19 94 1005 しゅう雨 散在した霧 もや
2 10:06 東南東 2 3100m 18 100 1005 しゅう雨 散在した霧 もや
2 10:00 南東 2 4000m 18 100 1005 弱いしゅう雨 散在した霧 もや
2 09:41 2 4900m 18 94 1005 弱いしゅう雨 散在した霧 もや
2 09:00 3 10km以上 18 100 1004
2 08:00 北北東 2 5000m 18 100 1004 弱いしゅう雨 散在した霧 もや
2 07:49 東北東 2 3200m 18 100 1005 弱いしゅう雨 散在した霧 もや
2 07:35 南東 4 1500m 17 100 1005 散在した霧 弱いしゅう雨 もや
2 07:30 南東 5 1000m 17 100 1005 散在した霧 弱いしゅう雨 もや
2 07:20 南南東 4 500m 17 94 1005 弱いしゅう雨 霧
2 07:04 南東 4 700m 17 94 1004 霧 弱いしゅう雨
2 06:50 南南東 4 800m 17 100 1004
2 06:40 南東 3 3100m 17 100 1004 散在した霧 もや
2 06:30 南東 3 3200m 17 100 1004 散在した霧 もや
2 06:20 南南東 3 2400m 17 100 1004 散在した霧 もや
2 06:10 南南東 3 2000m 18 94 1004 散在した霧 もや
1 20:00 西 2 10km以上 19 88 1003
1 19:00 2 10km以上 19 94 1003
1 18:00 東南東 5 10km以上 19 88 1002
1 17:00 南東 5 10km以上 19 94 1002
1 16:00 南南東 4 10km以上 18 94 1001
1 15:00 南東 3 10km以上 20 100 1001
1 14:32 不定 1 10km以上 18 100 1002 弱いしゅう雨
1 14:11 南南西 3 7000m 18 100 1002 弱いしゅう雨
1 14:00 2 8000m 19 100 1002 弱いしゅう雨
1 13:20 南南西 2 8000m 19 94 1001 弱いしゅう雨
1 13:00 西南西 2 5000m 19 94 1001 弱いしゅう雨 もや
1 12:49 西 4 3100m 18 100 1001 弱いしゅう雨 散在した霧 もや
1 12:38 南西 2 8000m 19 94 1001 弱いしゅう雨
1 12:21 南南東 2 10km以上 20 94 1000 弱いしゅう雨
1 12:00 南南東 2 8000m 20 94 1000 弱いしゅう雨
1 11:42 南南東 3 4900m 20 88 1000 弱いしゅう雨 散在した霧 もや
1 11:00 南南東 4 10km以上 20 88 1001 弱いしゅう雨
1 10:00 南東 5 10km以上 20 88 1000
1 09:00 3 10km以上 19 94 1000
1 08:00 南南東 2 10km以上 19 94 1000
1 07:00 2 10km以上 19 88 1000
1 06:10 2 10km以上 19 88 1000
RJCH 021100Z VRB02KT 8000 SHRA FEW006 BKN010 BKN020 17/16 Q1007
RJCH 021030Z VRB03KT 5000 SHRA BR FEW004 BKN009 BKN012 17/16 Q1006 RMK 1ST004 5ST009 6ST012 A2972
RJCH 021014Z 04008KT 310V100 3200 SHRA BR FEW003 BKN008 BKN012 17/16 Q1006 RMK 1ST003 5ST008 6ST012 A2971
RJCH 021000Z 04011G24KT 360V090 4900 -SHRA BR FEW003 BKN007 BKN012 17/16 Q1005
RJCH 020944Z 06009KT 010V090 5000 -SHRA BR FEW003 BKN006 BKN010 17/17 Q1005 RMK 1ST003 5ST006 6ST010 A2968
RJCH 020910Z 06005KT 340V120 3200 -SHRA BCFG BR FEW001 BKN005 BKN007 18/17 Q1004 RMK 2ST001 5ST005 6ST007 A2967
RJCH 020900Z VRB01KT 2400 SHRA BCFG BR SCT001 BKN003 BKN007 18/18 Q1004
RJCH 020848Z 29005KT 2400 SHRA BCFG BR SCT001 BKN004 BKN007 19/18 Q1004 RMK 3ST001 5ST004 6ST007 A2966
RJCH 020840Z VRB02KT 2300 -SHRA BCFG BR FEW001 BKN004 BKN007 19/19 Q1004 RMK 2ST001 5ST004 6ST007 A2966
RJCH 020810Z 14002KT 3000 -SHRA BCFG BR FEW001 BKN007 BKN010 19/18 Q1004 RMK 2ST001 5ST007 6ST010 A2965
RJCH 020800Z 14002KT 3000 SHRA BCFG BR FEW001 BKN006 BKN010 18/18 Q1004
RJCH 020748Z VRB02KT 3200 -SHRA BCFG BR FEW001 BKN008 BKN012 18/18 Q1004 RMK 2ST001 5ST008 6ST012 A2965
RJCH 020738Z 16004KT 2400 SHRA BCFG BR FEW001 BKN008 BKN012 18/18 Q1004 RMK 2ST001 5ST008 6ST012 A2965
RJCH 020712Z VRB01KT 2300 SHRA BCFG BR FEW001 BKN007 BKN010 20/20 Q1004 RMK 2ST001 5ST007 6ST010 A2965
RJCH 020700Z VRB01KT 3000 -SHRA BCFG BR FEW001 BKN007 BKN010 20/19 Q1004
RJCH 020632Z VRB01KT 3100 -SHRA BCFG BR FEW001 BKN007 BKN010 20/20 Q1004 RMK 2ST001 5ST007 6ST010 A2965
RJCH 020613Z VRB01KT 4900 -SHRA BCFG BR FEW001 BKN008 BKN010 19/19 Q1004 RMK 2ST001 5ST008 6ST010 A2965
RJCH 020600Z 16003KT 120V200 7000 -SHRA FEW003 SCT008 BKN012 19/19 Q1004
RJCH 020500Z VRB02KT 6000 -SHRA FEW003 SCT006 BKN010 20/19 Q1004
RJCH 020429Z 13005KT 6000 -SHRA FEW003 SCT006 BKN009 19/19 Q1004 RMK 2ST003 4ST006 6ST009 A2966
RJCH 020400Z 11003KT 040V150 5000 -SHRA BR FEW003 SCT006 BKN010 19/19 Q1004
RJCH 020339Z 15003KT 120V190 4000 -SHRA BCFG BR FEW001 BKN008 BKN010 19/18 Q1004 RMK 2ST001 5ST008 6ST010 A2967
RJCH 020318Z 23003KT 2300 -SHRA BCFG BR FEW001 BKN004 BKN008 18/18 Q1005 RMK 2ST001 5ST004 7ST008 A2968
RJCH 020310Z 23003KT 180V250 2400 -SHRA BCFG BR FEW001 BKN008 BKN010 19/18 Q1004 RMK 2ST001 5ST008 6ST010 A2967
RJCH 020300Z 22004KT 2300 -SHRA BCFG BR SCT001 BKN008 BKN010 19/19 Q1004
RJCH 020241Z 20003KT 160V230 3100 -SHRA BCFG BR SCT001 BKN010 BKN015 19/19 Q1004 RMK 3ST001 5ST010 7ST015 A2967
RJCH 020238Z 22003KT 4900 -SHRA BR FEW002 BKN010 BKN015 19/19 Q1004 RMK 2ST002 5ST010 7ST015 A2967
RJCH 020225Z VRB02KT 7000 -SHRA FEW002 BKN006 BKN015 20/20 Q1004 RMK 2ST002 5ST006 7ST015 A2967
RJCH 020200Z 06004KT 020V080 6000 -SHRA FEW002 BKN012 BKN020 19/19 Q1004
RJCH 020134Z 06004KT 5000 SHRA BR FEW002 BKN010 BKN020 19/18 Q1004 RMK 2ST002 5ST010 7CU020 A2967
RJCH 020125Z 06005KT 020V080 5000 SHRA BCFG BR FEW001 BKN007 BKN020 19/18 Q1004 RMK 2ST001 5ST007 7CU020 A2967
RJCH 020114Z 10005KT 060V130 3200 SHRA BCFG BR SCT001 BKN006 BKN015 19/18 Q1005 RMK 3ST001 5ST006 7ST015 A2968
RJCH 020106Z 12004KT 080V150 3100 SHRA BCFG BR SCT001 BKN005 BKN012 18/18 Q1005 RMK 3ST001 5ST005 7ST012 A2969
RJCH 020100Z 13004KT 4000 -SHRA BCFG BR SCT001 BKN004 BKN012 18/18 Q1005
RJCH 020041Z 19004KT 150V260 4900 R12/1500VP2000N -SHRA BCFG BR SCT001 BKN003 BKN012 18/17 Q1005 RMK 3ST001 5ST003 7ST012 A2968
RJCH 020000Z 18005KT 9999 FEW003 SCT008 BKN035 18/18 Q1004
RJCH 012300Z 02004KT 340V070 5000 -SHRA BCFG BR FEW001 BKN012 BKN030 18/18 Q1004
RJCH 012249Z 06004KT 020V110 3200 -SHRA BCFG BR FEW001 BKN012 BKN025 18/18 Q1005 RMK 2ST001 5ST012 7CU025 A2968
RJCH 012235Z 13008KT 1500 R12/0600VP2000U -SHRA BCFG BR BKN002 BKN010 17/17 Q1005 RMK 5ST002 7ST010 A2968
RJCH 012230Z 14009KT 1000 R12/0550VP2000U -SHRA BCFG BR VV001 17/17 Q1005 RMK A2968
RJCH 012220Z 15007KT 0500 R12/0700VP2000D FG -SHRA BKN002 BKN005 17/16 Q1005 RMK 5ST002 7ST005 A2968
RJCH 012204Z 14007KT 0700 R12/1400V1800N FG -SHRA VV001 17/16 Q1004 RMK A2967
RJCH 012150Z 15007KT 0800 R12/2000N FG BKN002 BKN005 17/17 Q1004 RMK 5ST002 7ST005 A2967
RJCH 012140Z 14006KT 3100 BCFG BR SCT001 BKN002 BKN005 17/17 Q1004 RMK 3ST001 5ST002 7ST005 A2966
RJCH 012130Z 14006KT 3200 BCFG BR FEW001 BKN003 BKN010 17/17 Q1004 RMK 2ST001 5ST003 7ST010 A2966
RJCH 012120Z 15006KT 120V180 2400 BCFG BR FEW001 BKN002 BKN006 17/17 Q1004 RMK 2ST001 5ST002 7ST006 A2966
RJCH 012110Z 16005KT 2000 BCFG BR SCT001 BKN003 BKN010 18/17 Q1004 RMK 3ST001 5ST003 7ST010 A2965
RJCH 011100Z 28003KT 240V330 9999 FEW005 SCT009 BKN015 19/17 Q1003
RJCH 011000Z 10003KT 9999 FEW006 SCT010 BKN015 19/18 Q1003
RJCH 010900Z 12009KT 9999 FEW005 SCT010 BKN015 19/17 Q1002
RJCH 010800Z 13010KT 9999 FEW007 SCT015 BKN040 19/18 Q1002
RJCH 010700Z 15007KT 9999 FEW002 SCT010 BKN040 18/17 Q1001
RJCH 010600Z 14005KT 9999 FEW003 SCT015 BKN050 20/20 Q1001
RJCH 010532Z VRB02KT 9999 -SHRA FEW003 SCT007 BKN015 18/18 Q1002 RMK 1ST003 4ST007 6ST015 A2959
RJCH 010511Z 21005KT 160V250 7000 -SHRA FEW003 BKN005 BKN009 18/18 Q1002 RMK 1ST003 5ST005 6ST009 A2960
RJCH 010500Z 17003KT 130V230 8000 -SHRA FEW004 BKN007 BKN010 19/19 Q1002
RJCH 010420Z 21004KT 180V240 8000 -SHRA FEW004 BKN006 BKN010 19/18 Q1001 RMK 1ST004 5ST006 7ST010 A2958
RJCH 010400Z 24004KT 5000 -SHRA BR FEW002 BKN008 BKN012 19/18 Q1001
RJCH 010349Z 26007KT 3100 -SHRA BCFG BR SCT001 BKN007 BKN012 18/18 Q1001 RMK 3ST001 5ST007 7ST012 A2957
RJCH 010338Z 23004KT 160V260 8000 -SHRA FEW003 BKN006 BKN012 19/18 Q1001 RMK 2ST003 5ST006 7ST012 A2956
RJCH 010321Z 16004KT 120V180 9999 -SHRA FEW004 BKN008 BKN015 20/19 Q1000 RMK 2ST004 5ST008 6ST015 A2955
RJCH 010300Z 16004KT 130V190 8000 -SHRA FEW004 BKN015 BKN035 20/19 Q1000
RJCH 010242Z 15005KT 100V170 4900 -SHRA BCFG BR FEW001 BKN012 BKN040 20/18 Q1000 RMK 2ST001 5ST012 6CU040 A2955
RJCH 010200Z 15007KT 9999 -SHRA SCT003 BKN012 BKN025 20/18 Q1001
RJCH 010100Z 14010KT 9999 SCT002 BKN015 BKN025 20/18 Q1000
RJCH 010000Z 18005KT 140V200 9999 FEW003 BKN012 BKN020 19/18 Q1000
RJCH 302300Z 15004KT 9999 FEW002 SCT012 BKN150 19/18 Q1000
RJCH 302200Z 10003KT 070V150 9999 FEW004 BKN010 BKN020 19/17 Q1000
RJCH 302110Z 09004KT 050V110 9999 FEW005 BKN012 BKN020 19/17 Q1000 RMK 1ST005 5ST012 6CU020 A2954